sensor_id;sensor_type;location;lat;lon;timestamp;P1;durP1;ratioP1;P2;durP2;ratioP2
80249;SDS011;69561;37.974;23.708;2023-06-10T00:02:10;13.63;;;5.63;;
80249;SDS011;69561;37.974;23.708;2023-06-10T00:04:36;12.23;;;5.57;;
80249;SDS011;69561;37.974;23.708;2023-06-10T00:07:03;9.38;;;5.38;;
80249;SDS011;69561;37.974;23.708;2023-06-10T00:09:34;10.27;;;5.65;;
80249;SDS011;69561;37.974;23.708;2023-06-10T00:12:02;12.07;;;5.68;;
80249;SDS011;69561;37.974;23.708;2023-06-10T00:14:31;12.38;;;5.72;;
80249;SDS011;69561;37.974;23.708;2023-06-10T00:16:58;11.32;;;5.63;;
80249;SDS011;69561;37.974;23.708;2023-06-10T00:19:24;16.00;;;5.93;;
80249;SDS011;69561;37.974;23.708;2023-06-10T00:21:51;9.93;;;5.88;;
80249;SDS011;69561;37.974;23.708;2023-06-10T00:24:17;11.25;;;5.43;;
80249;SDS011;69561;37.974;23.708;2023-06-10T00:26:43;7.47;;;5.47;;
80249;SDS011;69561;37.974;23.708;2023-06-10T00:29:10;14.18;;;6.00;;
80249;SDS011;69561;37.974;23.708;2023-06-10T00:31:36;11.95;;;6.30;;
80249;SDS011;69561;37.974;23.708;2023-06-10T00:34:02;12.30;;;6.25;;
80249;SDS011;69561;37.974;23.708;2023-06-10T00:36:29;10.40;;;5.60;;
80249;SDS011;69561;37.974;23.708;2023-06-10T00:38:55;10.88;;;6.00;;
80249;SDS011;69561;37.974;23.708;2023-06-10T00:41:21;15.48;;;6.00;;
80249;SDS011;69561;37.974;23.708;2023-06-10T00:43:47;12.63;;;6.32;;
80249;SDS011;69561;37.974;23.708;2023-06-10T00:46:13;14.23;;;5.75;;
80249;SDS011;69561;37.974;23.708;2023-06-10T00:48:39;8.73;;;6.00;;
80249;SDS011;69561;37.974;23.708;2023-06-10T00:51:06;8.95;;;6.15;;
80249;SDS011;69561;37.974;23.708;2023-06-10T00:53:34;7.68;;;5.47;;
80249;SDS011;69561;37.974;23.708;2023-06-10T00:56:01;11.55;;;5.90;;
80249;SDS011;69561;37.974;23.708;2023-06-10T00:58:28;13.23;;;5.85;;
80249;SDS011;69561;37.974;23.708;2023-06-10T01:00:54;16.38;;;5.53;;
80249;SDS011;69561;37.974;23.708;2023-06-10T01:03:20;7.45;;;5.28;;
80249;SDS011;69561;37.974;23.708;2023-06-10T01:05:48;11.85;;;5.60;;
80249;SDS011;69561;37.974;23.708;2023-06-10T01:11:08;11.60;;;5.80;;
80249;SDS011;69561;37.974;23.708;2023-06-10T01:13:44;11.98;;;5.68;;
80249;SDS011;69561;37.974;23.708;2023-06-10T01:16:11;9.82;;;5.55;;
80249;SDS011;69561;37.974;23.708;2023-06-10T01:18:37;12.25;;;5.32;;
80249;SDS011;69561;37.974;23.708;2023-06-10T01:21:07;10.60;;;5.82;;
80249;SDS011;69561;37.974;23.708;2023-06-10T01:23:34;13.65;;;6.03;;
80249;SDS011;69561;37.974;23.708;2023-06-10T01:26:00;10.88;;;5.53;;
80249;SDS011;69561;37.974;23.708;2023-06-10T01:28:32;9.48;;;5.22;;
80249;SDS011;69561;37.974;23.708;2023-06-10T01:33:59;10.93;;;5.60;;
80249;SDS011;69561;37.974;23.708;2023-06-10T01:36:27;10.52;;;5.43;;
80249;SDS011;69561;37.974;23.708;2023-06-10T01:38:54;13.10;;;6.10;;
80249;SDS011;69561;37.974;23.708;2023-06-10T01:41:21;12.82;;;5.47;;
80249;SDS011;69561;37.974;23.708;2023-06-10T01:43:48;11.57;;;5.60;;
80249;SDS011;69561;37.974;23.708;2023-06-10T01:46:14;11.25;;;5.68;;
80249;SDS011;69561;37.974;23.708;2023-06-10T01:48:44;10.35;;;5.63;;
80249;SDS011;69561;37.974;23.708;2023-06-10T01:51:10;15.45;;;6.03;;
80249;SDS011;69561;37.974;23.708;2023-06-10T01:53:36;10.55;;;6.20;;
80249;SDS011;69561;37.974;23.708;2023-06-10T01:56:01;10.70;;;6.00;;
80249;SDS011;69561;37.974;23.708;2023-06-10T01:58:27;10.65;;;6.13;;
80249;SDS011;69561;37.974;23.708;2023-06-10T02:00:53;11.95;;;5.72;;
80249;SDS011;69561;37.974;23.708;2023-06-10T02:03:18;11.13;;;5.90;;
80249;SDS011;69561;37.974;23.708;2023-06-10T02:05:44;14.55;;;6.20;;
80249;SDS011;69561;37.974;23.708;2023-06-10T02:08:10;10.05;;;5.80;;
80249;SDS011;69561;37.974;23.708;2023-06-10T02:10:35;10.52;;;6.00;;
80249;SDS011;69561;37.974;23.708;2023-06-10T02:13:01;12.10;;;5.88;;
80249;SDS011;69561;37.974;23.708;2023-06-10T02:15:27;13.25;;;6.43;;
80249;SDS011;69561;37.974;23.708;2023-06-10T02:17:53;15.57;;;6.05;;
80249;SDS011;69561;37.974;23.708;2023-06-10T02:20:19;11.77;;;5.85;;
80249;SDS011;69561;37.974;23.708;2023-06-10T02:22:45;10.27;;;6.15;;
80249;SDS011;69561;37.974;23.708;2023-06-10T02:25:11;13.52;;;6.03;;
80249;SDS011;69561;37.974;23.708;2023-06-10T02:27:37;11.52;;;5.70;;
80249;SDS011;69561;37.974;23.708;2023-06-10T02:30:03;13.65;;;5.88;;
80249;SDS011;69561;37.974;23.708;2023-06-10T02:32:30;11.50;;;5.65;;
80249;SDS011;69561;37.974;23.708;2023-06-10T02:34:55;8.25;;;5.13;;
80249;SDS011;69561;37.974;23.708;2023-06-10T02:37:21;13.60;;;5.78;;
80249;SDS011;69561;37.974;23.708;2023-06-10T02:39:47;13.45;;;5.90;;
80249;SDS011;69561;37.974;23.708;2023-06-10T02:42:12;8.35;;;5.50;;
80249;SDS011;69561;37.974;23.708;2023-06-10T02:44:38;11.18;;;5.65;;
80249;SDS011;69561;37.974;23.708;2023-06-10T02:47:04;10.68;;;5.78;;
80249;SDS011;69561;37.974;23.708;2023-06-10T02:49:30;13.77;;;5.85;;
80249;SDS011;69561;37.974;23.708;2023-06-10T02:51:56;12.93;;;5.97;;
80249;SDS011;69561;37.974;23.708;2023-06-10T02:54:25;10.48;;;5.50;;
80249;SDS011;69561;37.974;23.708;2023-06-10T02:56:51;10.15;;;5.38;;
80249;SDS011;69561;37.974;23.708;2023-06-10T02:59:17;12.25;;;6.10;;
80249;SDS011;69561;37.974;23.708;2023-06-10T03:01:43;11.68;;;5.50;;
80249;SDS011;69561;37.974;23.708;2023-06-10T03:04:09;11.32;;;5.45;;
80249;SDS011;69561;37.974;23.708;2023-06-10T03:06:37;9.43;;;5.35;;
80249;SDS011;69561;37.974;23.708;2023-06-10T03:09:05;15.00;;;5.72;;
80249;SDS011;69561;37.974;23.708;2023-06-10T03:11:34;10.38;;;5.60;;
80249;SDS011;69561;37.974;23.708;2023-06-10T03:14:00;11.45;;;5.20;;
80249;SDS011;69561;37.974;23.708;2023-06-10T03:16:26;9.43;;;5.25;;
80249;SDS011;69561;37.974;23.708;2023-06-10T03:18:52;13.80;;;5.25;;
80249;SDS011;69561;37.974;23.708;2023-06-10T03:21:18;10.50;;;5.78;;
80249;SDS011;69561;37.974;23.708;2023-06-10T03:23:44;10.77;;;5.82;;
80249;SDS011;69561;37.974;23.708;2023-06-10T03:26:11;10.73;;;5.78;;
80249;SDS011;69561;37.974;23.708;2023-06-10T03:28:39;8.23;;;5.43;;
80249;SDS011;69561;37.974;23.708;2023-06-10T03:31:05;11.45;;;5.70;;
80249;SDS011;69561;37.974;23.708;2023-06-10T03:33:31;9.57;;;4.95;;
80249;SDS011;69561;37.974;23.708;2023-06-10T03:35:57;12.18;;;6.03;;
80249;SDS011;69561;37.974;23.708;2023-06-10T03:38:23;12.48;;;5.13;;
80249;SDS011;69561;37.974;23.708;2023-06-10T03:40:49;14.05;;;5.18;;
80249;SDS011;69561;37.974;23.708;2023-06-10T03:43:15;11.55;;;5.28;;
80249;SDS011;69561;37.974;23.708;2023-06-10T03:45:41;12.63;;;5.53;;
80249;SDS011;69561;37.974;23.708;2023-06-10T03:48:06;20.77;;;5.60;;
80249;SDS011;69561;37.974;23.708;2023-06-10T03:50:33;10.95;;;5.32;;
80249;SDS011;69561;37.974;23.708;2023-06-10T03:52:59;9.70;;;5.45;;
80249;SDS011;69561;37.974;23.708;2023-06-10T03:55:25;11.10;;;5.75;;
80249;SDS011;69561;37.974;23.708;2023-06-10T03:57:51;11.60;;;5.35;;
80249;SDS011;69561;37.974;23.708;2023-06-10T04:00:17;10.75;;;5.30;;
80249;SDS011;69561;37.974;23.708;2023-06-10T04:02:44;13.32;;;5.03;;
80249;SDS011;69561;37.974;23.708;2023-06-10T04:05:15;16.95;;;5.88;;
80249;SDS011;69561;37.974;23.708;2023-06-10T04:07:42;13.45;;;5.95;;
80249;SDS011;69561;37.974;23.708;2023-06-10T04:10:09;11.23;;;4.90;;
80249;SDS011;69561;37.974;23.708;2023-06-10T04:12:36;15.63;;;5.28;;
80249;SDS011;69561;37.974;23.708;2023-06-10T04:15:03;10.57;;;5.78;;
80249;SDS011;69561;37.974;23.708;2023-06-10T04:17:29;10.10;;;5.10;;
80249;SDS011;69561;37.974;23.708;2023-06-10T04:19:55;13.15;;;5.40;;
80249;SDS011;69561;37.974;23.708;2023-06-10T04:22:21;11.15;;;5.45;;
80249;SDS011;69561;37.974;23.708;2023-06-10T04:24:47;14.65;;;5.97;;
80249;SDS011;69561;37.974;23.708;2023-06-10T04:27:13;12.88;;;5.32;;
80249;SDS011;69561;37.974;23.708;2023-06-10T04:29:39;11.82;;;5.38;;
80249;SDS011;69561;37.974;23.708;2023-06-10T04:32:05;11.73;;;5.18;;
80249;SDS011;69561;37.974;23.708;2023-06-10T04:34:34;13.98;;;5.20;;
80249;SDS011;69561;37.974;23.708;2023-06-10T04:37:00;14.60;;;5.57;;
80249;SDS011;69561;37.974;23.708;2023-06-10T04:39:26;13.75;;;5.85;;
80249;SDS011;69561;37.974;23.708;2023-06-10T04:41:52;12.98;;;5.85;;
80249;SDS011;69561;37.974;23.708;2023-06-10T04:44:18;12.43;;;5.47;;
80249;SDS011;69561;37.974;23.708;2023-06-10T04:46:43;16.70;;;5.53;;
80249;SDS011;69561;37.974;23.708;2023-06-10T04:49:10;20.20;;;4.97;;
80249;SDS011;69561;37.974;23.708;2023-06-10T04:51:39;14.60;;;5.40;;
80249;SDS011;69561;37.974;23.708;2023-06-10T04:54:04;14.52;;;5.50;;
80249;SDS011;69561;37.974;23.708;2023-06-10T04:56:31;15.30;;;5.50;;
80249;SDS011;69561;37.974;23.708;2023-06-10T04:58:57;9.75;;;5.30;;
80249;SDS011;69561;37.974;23.708;2023-06-10T05:01:23;11.95;;;5.22;;
80249;SDS011;69561;37.974;23.708;2023-06-10T05:03:48;11.32;;;5.78;;
80249;SDS011;69561;37.974;23.708;2023-06-10T05:06:14;8.73;;;5.63;;
80249;SDS011;69561;37.974;23.708;2023-06-10T05:08:40;10.30;;;4.90;;
80249;SDS011;69561;37.974;23.708;2023-06-10T05:11:06;9.48;;;4.70;;
80249;SDS011;69561;37.974;23.708;2023-06-10T05:13:31;9.70;;;4.65;;
80249;SDS011;69561;37.974;23.708;2023-06-10T05:15:57;7.38;;;4.80;;
80249;SDS011;69561;37.974;23.708;2023-06-10T05:18:23;9.98;;;4.85;;
80249;SDS011;69561;37.974;23.708;2023-06-10T05:20:49;9.13;;;5.03;;
80249;SDS011;69561;37.974;23.708;2023-06-10T05:23:15;7.65;;;4.57;;
80249;SDS011;69561;37.974;23.708;2023-06-10T05:25:40;7.05;;;4.47;;
80249;SDS011;69561;37.974;23.708;2023-06-10T05:28:07;8.07;;;4.50;;
80249;SDS011;69561;37.974;23.708;2023-06-10T05:30:35;13.45;;;4.95;;
80249;SDS011;69561;37.974;23.708;2023-06-10T05:33:01;7.13;;;4.68;;
80249;SDS011;69561;37.974;23.708;2023-06-10T05:35:28;7.68;;;4.60;;
80249;SDS011;69561;37.974;23.708;2023-06-10T05:37:53;8.35;;;4.55;;
80249;SDS011;69561;37.974;23.708;2023-06-10T05:40:19;8.77;;;4.63;;
80249;SDS011;69561;37.974;23.708;2023-06-10T05:42:45;8.38;;;4.55;;
80249;SDS011;69561;37.974;23.708;2023-06-10T05:45:11;7.82;;;4.15;;
80249;SDS011;69561;37.974;23.708;2023-06-10T05:47:36;9.25;;;4.97;;
80249;SDS011;69561;37.974;23.708;2023-06-10T05:50:02;11.48;;;4.07;;
80249;SDS011;69561;37.974;23.708;2023-06-10T05:52:32;9.05;;;4.50;;
80249;SDS011;69561;37.974;23.708;2023-06-10T05:54:58;8.00;;;4.47;;
80249;SDS011;69561;37.974;23.708;2023-06-10T05:57:24;10.35;;;4.45;;
80249;SDS011;69561;37.974;23.708;2023-06-10T05:59:51;5.05;;;3.75;;
80249;SDS011;69561;37.974;23.708;2023-06-10T06:02:17;6.28;;;3.90;;
80249;SDS011;69561;37.974;23.708;2023-06-10T06:04:43;7.70;;;3.70;;
80249;SDS011;69561;37.974;23.708;2023-06-10T06:07:08;7.55;;;3.60;;
80249;SDS011;69561;37.974;23.708;2023-06-10T06:09:34;7.75;;;4.20;;
80249;SDS011;69561;37.974;23.708;2023-06-10T06:12:00;7.70;;;4.40;;
80249;SDS011;69561;37.974;23.708;2023-06-10T06:14:26;5.80;;;3.67;;
80249;SDS011;69561;37.974;23.708;2023-06-10T06:16:51;7.35;;;3.80;;
80249;SDS011;69561;37.974;23.708;2023-06-10T06:19:17;7.38;;;4.13;;
80249;SDS011;69561;37.974;23.708;2023-06-10T06:21:43;6.93;;;4.10;;
80249;SDS011;69561;37.974;23.708;2023-06-10T06:24:08;9.23;;;3.90;;
80249;SDS011;69561;37.974;23.708;2023-06-10T06:26:34;6.63;;;3.85;;
80249;SDS011;69561;37.974;23.708;2023-06-10T06:29:00;8.00;;;3.92;;
80249;SDS011;69561;37.974;23.708;2023-06-10T06:31:26;7.93;;;4.07;;
80249;SDS011;69561;37.974;23.708;2023-06-10T06:33:51;5.95;;;3.50;;
80249;SDS011;69561;37.974;23.708;2023-06-10T06:36:17;6.93;;;3.80;;
80249;SDS011;69561;37.974;23.708;2023-06-10T06:38:43;4.70;;;3.70;;
80249;SDS011;69561;37.974;23.708;2023-06-10T06:41:08;6.82;;;3.60;;
80249;SDS011;69561;37.974;23.708;2023-06-10T06:43:34;5.57;;;3.60;;
80249;SDS011;69561;37.974;23.708;2023-06-10T06:46:00;5.78;;;3.70;;
80249;SDS011;69561;37.974;23.708;2023-06-10T06:48:25;6.80;;;3.80;;
80249;SDS011;69561;37.974;23.708;2023-06-10T06:50:51;5.28;;;3.30;;
80249;SDS011;69561;37.974;23.708;2023-06-10T06:53:17;4.55;;;3.38;;
80249;SDS011;69561;37.974;23.708;2023-06-10T06:55:43;7.97;;;3.60;;
80249;SDS011;69561;37.974;23.708;2023-06-10T06:58:08;7.47;;;3.78;;
80249;SDS011;69561;37.974;23.708;2023-06-10T07:00:34;6.30;;;3.75;;
80249;SDS011;69561;37.974;23.708;2023-06-10T07:03:00;4.63;;;3.30;;
80249;SDS011;69561;37.974;23.708;2023-06-10T07:05:25;4.28;;;3.30;;
80249;SDS011;69561;37.974;23.708;2023-06-10T07:07:52;5.47;;;3.50;;
80249;SDS011;69561;37.974;23.708;2023-06-10T07:10:22;6.40;;;3.60;;
80249;SDS011;69561;37.974;23.708;2023-06-10T07:12:48;7.70;;;3.38;;
80249;SDS011;69561;37.974;23.708;2023-06-10T07:15:14;5.75;;;3.42;;
80249;SDS011;69561;37.974;23.708;2023-06-10T07:17:40;7.30;;;3.92;;
80249;SDS011;69561;37.974;23.708;2023-06-10T07:20:05;6.20;;;3.53;;
80249;SDS011;69561;37.974;23.708;2023-06-10T07:22:31;6.13;;;3.60;;
80249;SDS011;69561;37.974;23.708;2023-06-10T07:24:57;7.90;;;3.42;;
80249;SDS011;69561;37.974;23.708;2023-06-10T07:27:23;7.22;;;3.42;;
80249;SDS011;69561;37.974;23.708;2023-06-10T07:29:50;6.53;;;3.58;;
80249;SDS011;69561;37.974;23.708;2023-06-10T07:32:16;4.63;;;3.25;;
80249;SDS011;69561;37.974;23.708;2023-06-10T07:34:42;6.70;;;3.85;;
80249;SDS011;69561;37.974;23.708;2023-06-10T07:37:08;6.93;;;3.97;;
80249;SDS011;69561;37.974;23.708;2023-06-10T07:39:34;5.10;;;3.30;;
80249;SDS011;69561;37.974;23.708;2023-06-10T07:42:00;7.80;;;2.92;;
80249;SDS011;69561;37.974;23.708;2023-06-10T07:44:26;6.78;;;3.40;;
80249;SDS011;69561;37.974;23.708;2023-06-10T07:46:51;5.05;;;3.28;;
80249;SDS011;69561;37.974;23.708;2023-06-10T07:49:17;7.32;;;3.30;;
80249;SDS011;69561;37.974;23.708;2023-06-10T07:51:43;6.22;;;3.40;;
80249;SDS011;69561;37.974;23.708;2023-06-10T07:54:09;5.03;;;3.30;;
80249;SDS011;69561;37.974;23.708;2023-06-10T07:56:37;6.40;;;3.53;;
80249;SDS011;69561;37.974;23.708;2023-06-10T07:59:03;7.47;;;3.47;;
80249;SDS011;69561;37.974;23.708;2023-06-10T08:01:28;4.32;;;3.03;;
80249;SDS011;69561;37.974;23.708;2023-06-10T08:03:55;4.97;;;3.45;;
80249;SDS011;69561;37.974;23.708;2023-06-10T08:06:20;7.00;;;3.45;;
80249;SDS011;69561;37.974;23.708;2023-06-10T08:08:46;4.88;;;3.25;;
80249;SDS011;69561;37.974;23.708;2023-06-10T08:11:12;8.68;;;3.38;;
80249;SDS011;69561;37.974;23.708;2023-06-10T08:13:38;4.20;;;3.20;;
80249;SDS011;69561;37.974;23.708;2023-06-10T08:16:05;5.70;;;3.42;;
80249;SDS011;69561;37.974;23.708;2023-06-10T08:18:30;6.63;;;3.60;;
80249;SDS011;69561;37.974;23.708;2023-06-10T08:20:56;5.03;;;3.25;;
80249;SDS011;69561;37.974;23.708;2023-06-10T08:23:22;9.98;;;3.30;;
80249;SDS011;69561;37.974;23.708;2023-06-10T08:25:48;7.05;;;3.33;;
80249;SDS011;69561;37.974;23.708;2023-06-10T08:28:14;8.02;;;4.00;;
80249;SDS011;69561;37.974;23.708;2023-06-10T08:30:40;5.10;;;3.13;;
80249;SDS011;69561;37.974;23.708;2023-06-10T08:33:05;7.03;;;3.42;;
80249;SDS011;69561;37.974;23.708;2023-06-10T08:35:31;6.25;;;3.22;;
80249;SDS011;69561;37.974;23.708;2023-06-10T08:37:57;4.10;;;2.90;;
80249;SDS011;69561;37.974;23.708;2023-06-10T08:40:22;7.05;;;3.60;;
80249;SDS011;69561;37.974;23.708;2023-06-10T08:42:51;4.85;;;3.40;;
80249;SDS011;69561;37.974;23.708;2023-06-10T08:45:25;6.60;;;3.50;;
80249;SDS011;69561;37.974;23.708;2023-06-10T08:47:54;4.95;;;3.35;;
80249;SDS011;69561;37.974;23.708;2023-06-10T08:50:22;6.82;;;3.03;;
80249;SDS011;69561;37.974;23.708;2023-06-10T08:52:48;9.10;;;3.45;;
80249;SDS011;69561;37.974;23.708;2023-06-10T08:55:18;6.03;;;3.47;;
80249;SDS011;69561;37.974;23.708;2023-06-10T08:57:51;5.97;;;3.47;;
80249;SDS011;69561;37.974;23.708;2023-06-10T09:00:18;6.22;;;3.63;;
80249;SDS011;69561;37.974;23.708;2023-06-10T09:02:44;5.93;;;3.47;;
80249;SDS011;69561;37.974;23.708;2023-06-10T09:05:10;7.05;;;3.40;;
80249;SDS011;69561;37.974;23.708;2023-06-10T09:07:37;6.60;;;3.47;;
80249;SDS011;69561;37.974;23.708;2023-06-10T09:10:03;5.72;;;3.28;;
80249;SDS011;69561;37.974;23.708;2023-06-10T09:12:32;5.30;;;3.40;;
80249;SDS011;69561;37.974;23.708;2023-06-10T09:14:59;8.27;;;3.30;;
80249;SDS011;69561;37.974;23.708;2023-06-10T09:17:27;4.32;;;3.05;;
80249;SDS011;69561;37.974;23.708;2023-06-10T09:19:53;4.80;;;3.25;;
80249;SDS011;69561;37.974;23.708;2023-06-10T09:22:23;4.90;;;3.20;;
80249;SDS011;69561;37.974;23.708;2023-06-10T09:24:51;3.97;;;3.20;;
80249;SDS011;69561;37.974;23.708;2023-06-10T09:27:29;5.68;;;3.47;;
80249;SDS011;69561;37.974;23.708;2023-06-10T09:29:56;8.88;;;3.13;;
80249;SDS011;69561;37.974;23.708;2023-06-10T09:32:22;6.78;;;3.15;;
80249;SDS011;69561;37.974;23.708;2023-06-10T09:34:49;6.38;;;3.22;;
80249;SDS011;69561;37.974;23.708;2023-06-10T09:37:21;4.88;;;3.25;;
80249;SDS011;69561;37.974;23.708;2023-06-10T09:40:01;5.20;;;3.25;;
80249;SDS011;69561;37.974;23.708;2023-06-10T09:42:35;6.05;;;3.25;;
80249;SDS011;69561;37.974;23.708;2023-06-10T09:45:03;6.10;;;3.38;;
80249;SDS011;69561;37.974;23.708;2023-06-10T09:47:30;6.18;;;3.67;;
80249;SDS011;69561;37.974;23.708;2023-06-10T09:49:55;4.53;;;3.30;;
80249;SDS011;69561;37.974;23.708;2023-06-10T09:52:25;10.32;;;3.67;;
80249;SDS011;69561;37.974;23.708;2023-06-10T09:54:52;8.18;;;3.17;;
80249;SDS011;69561;37.974;23.708;2023-06-10T09:57:19;4.35;;;3.30;;
80249;SDS011;69561;37.974;23.708;2023-06-10T09:59:46;4.57;;;3.55;;
80249;SDS011;69561;37.974;23.708;2023-06-10T10:02:16;7.57;;;3.88;;
80249;SDS011;69561;37.974;23.708;2023-06-10T10:04:43;5.55;;;3.42;;
80249;SDS011;69561;37.974;23.708;2023-06-10T10:07:09;5.10;;;3.20;;
80249;SDS011;69561;37.974;23.708;2023-06-10T10:09:39;7.20;;;3.58;;
80249;SDS011;69561;37.974;23.708;2023-06-10T10:12:08;7.03;;;3.65;;
80249;SDS011;69561;37.974;23.708;2023-06-10T10:14:39;5.80;;;3.58;;
80249;SDS011;69561;37.974;23.708;2023-06-10T10:17:09;6.00;;;3.28;;
80249;SDS011;69561;37.974;23.708;2023-06-10T10:19:48;5.55;;;3.25;;
80249;SDS011;69561;37.974;23.708;2023-06-10T10:22:19;7.28;;;3.53;;
80249;SDS011;69561;37.974;23.708;2023-06-10T10:24:50;4.97;;;3.28;;
80249;SDS011;69561;37.974;23.708;2023-06-10T10:27:21;7.25;;;3.35;;
80249;SDS011;69561;37.974;23.708;2023-06-10T10:29:52;5.93;;;3.40;;
80249;SDS011;69561;37.974;23.708;2023-06-10T10:32:26;5.60;;;3.47;;
80249;SDS011;69561;37.974;23.708;2023-06-10T10:37:42;6.90;;;3.40;;
80249;SDS011;69561;37.974;23.708;2023-06-10T10:40:08;5.70;;;3.58;;
80249;SDS011;69561;37.974;23.708;2023-06-10T10:42:36;5.55;;;3.40;;
80249;SDS011;69561;37.974;23.708;2023-06-10T10:45:03;6.38;;;3.30;;
80249;SDS011;69561;37.974;23.708;2023-06-10T10:47:30;5.32;;;3.40;;
80249;SDS011;69561;37.974;23.708;2023-06-10T10:49:57;6.38;;;3.30;;
80249;SDS011;69561;37.974;23.708;2023-06-10T10:52:24;6.90;;;3.85;;
80249;SDS011;69561;37.974;23.708;2023-06-10T10:54:52;7.00;;;3.25;;
80249;SDS011;69561;37.974;23.708;2023-06-10T10:57:22;5.43;;;3.50;;
80249;SDS011;69561;37.974;23.708;2023-06-10T11:02:16;7.43;;;3.28;;
80249;SDS011;69561;37.974;23.708;2023-06-10T11:05:03;7.28;;;3.60;;
80249;SDS011;69561;37.974;23.708;2023-06-10T11:07:30;7.25;;;3.55;;
80249;SDS011;69561;37.974;23.708;2023-06-10T11:10:06;7.32;;;3.00;;
80249;SDS011;69561;37.974;23.708;2023-06-10T11:15:11;10.65;;;3.30;;
80249;SDS011;69561;37.974;23.708;2023-06-10T11:17:52;6.63;;;3.53;;
80249;SDS011;69561;37.974;23.708;2023-06-10T11:23:10;4.57;;;3.28;;
80249;SDS011;69561;37.974;23.708;2023-06-10T11:25:49;5.63;;;3.65;;
80249;SDS011;69561;37.974;23.708;2023-06-10T11:28:18;6.63;;;3.25;;
80249;SDS011;69561;37.974;23.708;2023-06-10T11:30:44;6.28;;;3.40;;
80249;SDS011;69561;37.974;23.708;2023-06-10T11:33:14;4.70;;;3.25;;
80249;SDS011;69561;37.974;23.708;2023-06-10T11:35:42;7.43;;;3.58;;
80249;SDS011;69561;37.974;23.708;2023-06-10T11:38:08;6.78;;;3.17;;
80249;SDS011;69561;37.974;23.708;2023-06-10T11:40:36;5.72;;;3.08;;
80249;SDS011;69561;37.974;23.708;2023-06-10T11:43:03;3.90;;;2.90;;
80249;SDS011;69561;37.974;23.708;2023-06-10T11:45:29;4.50;;;3.22;;
80249;SDS011;69561;37.974;23.708;2023-06-10T11:47:55;7.28;;;3.33;;
80249;SDS011;69561;37.974;23.708;2023-06-10T11:50:28;5.45;;;3.70;;
80249;SDS011;69561;37.974;23.708;2023-06-10T11:52:57;4.53;;;3.25;;
80249;SDS011;69561;37.974;23.708;2023-06-10T11:58:13;4.40;;;3.20;;
80249;SDS011;69561;37.974;23.708;2023-06-10T12:00:46;4.50;;;3.25;;
80249;SDS011;69561;37.974;23.708;2023-06-10T12:03:14;6.03;;;3.33;;
80249;SDS011;69561;37.974;23.708;2023-06-10T12:05:40;5.50;;;3.42;;
80249;SDS011;69561;37.974;23.708;2023-06-10T12:08:18;2.97;;;2.65;;
80249;SDS011;69561;37.974;23.708;2023-06-10T12:10:44;5.93;;;3.50;;
80249;SDS011;69561;37.974;23.708;2023-06-10T12:13:10;4.13;;;3.08;;
80249;SDS011;69561;37.974;23.708;2023-06-10T12:15:36;4.75;;;3.20;;
80249;SDS011;69561;37.974;23.708;2023-06-10T12:18:02;4.05;;;2.90;;
80249;SDS011;69561;37.974;23.708;2023-06-10T12:20:29;5.18;;;3.22;;
80249;SDS011;69561;37.974;23.708;2023-06-10T12:25:33;8.52;;;3.15;;
80249;SDS011;69561;37.974;23.708;2023-06-10T12:27:59;4.07;;;3.20;;
80249;SDS011;69561;37.974;23.708;2023-06-10T12:30:25;3.45;;;2.90;;
80249;SDS011;69561;37.974;23.708;2023-06-10T12:32:52;4.45;;;3.17;;
80249;SDS011;69561;37.974;23.708;2023-06-10T12:35:19;4.32;;;3.08;;
80249;SDS011;69561;37.974;23.708;2023-06-10T12:38:00;4.93;;;3.20;;
80249;SDS011;69561;37.974;23.708;2023-06-10T12:43:05;3.33;;;3.00;;
80249;SDS011;69561;37.974;23.708;2023-06-10T12:45:32;4.20;;;2.95;;
80249;SDS011;69561;37.974;23.708;2023-06-10T12:48:06;4.45;;;3.28;;
80249;SDS011;69561;37.974;23.708;2023-06-10T12:50:36;10.25;;;2.90;;
80249;SDS011;69561;37.974;23.708;2023-06-10T12:53:04;5.13;;;3.50;;
80249;SDS011;69561;37.974;23.708;2023-06-10T12:55:29;4.93;;;3.20;;
80249;SDS011;69561;37.974;23.708;2023-06-10T12:57:56;3.63;;;3.00;;
80249;SDS011;69561;37.974;23.708;2023-06-10T13:00:22;3.25;;;2.88;;
80249;SDS011;69561;37.974;23.708;2023-06-10T13:02:51;5.57;;;3.00;;
80249;SDS011;69561;37.974;23.708;2023-06-10T13:05:18;3.67;;;2.92;;
80249;SDS011;69561;37.974;23.708;2023-06-10T13:07:45;3.58;;;2.72;;
80249;SDS011;69561;37.974;23.708;2023-06-10T13:10:12;4.13;;;3.00;;
80249;SDS011;69561;37.974;23.708;2023-06-10T13:12:39;4.68;;;2.90;;
80249;SDS011;69561;37.974;23.708;2023-06-10T13:15:05;3.42;;;2.47;;
80249;SDS011;69561;37.974;23.708;2023-06-10T13:17:31;5.80;;;2.88;;
80249;SDS011;69561;37.974;23.708;2023-06-10T13:20:01;3.65;;;2.83;;
80249;SDS011;69561;37.974;23.708;2023-06-10T13:22:29;3.83;;;2.72;;
80249;SDS011;69561;37.974;23.708;2023-06-10T13:24:57;5.10;;;2.90;;
80249;SDS011;69561;37.974;23.708;2023-06-10T13:27:26;3.95;;;2.90;;
80249;SDS011;69561;37.974;23.708;2023-06-10T13:29:52;4.38;;;3.20;;
80249;SDS011;69561;37.974;23.708;2023-06-10T13:32:18;5.00;;;2.97;;
80249;SDS011;69561;37.974;23.708;2023-06-10T13:34:44;5.07;;;3.05;;
80249;SDS011;69561;37.974;23.708;2023-06-10T13:37:10;7.57;;;2.65;;
80249;SDS011;69561;37.974;23.708;2023-06-10T13:39:37;3.13;;;2.63;;
80249;SDS011;69561;37.974;23.708;2023-06-10T13:42:04;4.50;;;2.90;;
80249;SDS011;69561;37.974;23.708;2023-06-10T13:44:31;3.17;;;2.88;;
80249;SDS011;69561;37.974;23.708;2023-06-10T13:46:59;4.20;;;2.92;;
80249;SDS011;69561;37.974;23.708;2023-06-10T13:49:24;3.00;;;2.72;;
80249;SDS011;69561;37.974;23.708;2023-06-10T13:51:50;3.78;;;2.80;;
80249;SDS011;69561;37.974;23.708;2023-06-10T13:54:16;6.00;;;2.70;;
80249;SDS011;69561;37.974;23.708;2023-06-10T13:56:41;2.83;;;2.60;;
80249;SDS011;69561;37.974;23.708;2023-06-10T13:59:07;3.67;;;2.80;;
80249;SDS011;69561;37.974;23.708;2023-06-10T14:01:33;6.85;;;2.97;;
80249;SDS011;69561;37.974;23.708;2023-06-10T14:03:59;4.40;;;3.33;;
80249;SDS011;69561;37.974;23.708;2023-06-10T14:06:25;3.95;;;2.72;;
80249;SDS011;69561;37.974;23.708;2023-06-10T14:08:51;4.95;;;2.97;;
80249;SDS011;69561;37.974;23.708;2023-06-10T14:11:19;3.92;;;2.90;;
80249;SDS011;69561;37.974;23.708;2023-06-10T14:13:46;2.83;;;2.55;;
80249;SDS011;69561;37.974;23.708;2023-06-10T14:16:12;3.20;;;2.58;;
80249;SDS011;69561;37.974;23.708;2023-06-10T14:18:38;3.28;;;2.67;;
80249;SDS011;69561;37.974;23.708;2023-06-10T14:21:03;2.95;;;2.67;;
80249;SDS011;69561;37.974;23.708;2023-06-10T14:23:29;3.63;;;2.72;;
80249;SDS011;69561;37.974;23.708;2023-06-10T14:25:55;3.88;;;2.70;;
80249;SDS011;69561;37.974;23.708;2023-06-10T14:28:21;4.38;;;2.65;;
80249;SDS011;69561;37.974;23.708;2023-06-10T14:30:46;3.58;;;3.10;;
80249;SDS011;69561;37.974;23.708;2023-06-10T14:33:12;6.10;;;2.80;;
80249;SDS011;69561;37.974;23.708;2023-06-10T14:35:38;3.78;;;2.80;;
80249;SDS011;69561;37.974;23.708;2023-06-10T14:38:03;3.65;;;2.63;;
80249;SDS011;69561;37.974;23.708;2023-06-10T14:40:29;3.85;;;2.70;;
80249;SDS011;69561;37.974;23.708;2023-06-10T14:42:56;4.53;;;2.80;;
80249;SDS011;69561;37.974;23.708;2023-06-10T14:45:22;5.70;;;2.85;;
80249;SDS011;69561;37.974;23.708;2023-06-10T14:47:50;3.17;;;2.88;;
80249;SDS011;69561;37.974;23.708;2023-06-10T14:50:16;3.28;;;2.88;;
80249;SDS011;69561;37.974;23.708;2023-06-10T14:52:41;3.92;;;2.80;;
80249;SDS011;69561;37.974;23.708;2023-06-10T14:55:07;5.20;;;3.13;;